Time;durP1;ratioP1;P1;durP2;ratioP2;P2;SDS_P1;SDS_P2;PMS_P1;PMS_P2;Temp;Humidity;BMP_temperature;BMP_pressure;BME280_temperature;BME280_humidity;BME280_pressure;Samples;Min_cycle;Max_cycle;Signal;HPM_P1;HPM_P2
2023/07/04 00:01:49;;;;;;;13.57;12.55;;;17.10;67.70;;;;;;5069326;28;20085;-72
2023/07/04 00:04:20;;;;;;;13.80;12.68;;;17.00;67.90;;;;;;5052461;28;20483;-72
2023/07/04 00:06:50;;;;;;;13.02;12.13;;;17.00;68.80;;;;;;5082099;28;20067;-72
2023/07/04 00:09:17;;;;;;;13.60;12.60;;;16.90;69.20;;;;;;5074708;28;20036;-72
2023/07/04 00:11:43;;;;;;;14.18;13.10;;;16.90;68.60;;;;;;5078970;28;20036;-72
2023/07/04 00:14:09;;;;;;;12.68;11.88;;;16.90;68.80;;;;;;5053914;28;20502;-72
2023/07/04 00:16:35;;;;;;;12.00;11.10;;;16.90;68.00;;;;;;5071669;28;20898;-72
2023/07/04 00:19:03;;;;;;;12.05;10.93;;;16.90;68.00;;;;;;5078847;28;20029;-72
2023/07/04 00:21:30;;;;;;;10.90;10.10;;;16.90;67.90;;;;;;5074173;28;20505;-72
2023/07/04 00:23:55;;;;;;;10.63;9.82;;;16.90;68.60;;;;;;5088557;28;20423;-72
2023/07/04 00:26:24;;;;;;;10.48;9.57;;;16.80;69.40;;;;;;5075675;28;20035;-72
2023/07/04 00:28:49;;;;;;;10.52;9.65;;;16.80;69.90;;;;;;5072407;28;20044;-72
2023/07/04 00:31:18;;;;;;;10.35;9.60;;;16.70;71.00;;;;;;5052481;28;20032;-72
2023/07/04 00:33:44;;;;;;;9.80;9.02;;;16.60;71.50;;;;;;5074162;28;20024;-72
2023/07/04 00:36:12;;;;;;;10.55;9.43;;;16.60;71.40;;;;;;5069796;28;20024;-72
2023/07/04 00:38:40;;;;;;;10.10;9.30;;;16.60;71.60;;;;;;5056474;28;20024;-72
2023/07/04 00:41:13;;;;;;;10.43;9.63;;;16.60;72.20;;;;;;5073225;28;20717;-72
2023/07/04 00:44:11;;;;;;;10.40;9.60;;;16.60;72.00;;;;;;5057546;28;20789;-72
2023/07/04 00:47:10;;;;;;;9.75;8.95;;;16.60;72.40;;;;;;5073997;28;20120;-72
2023/07/04 00:49:48;;;;;;;10.27;9.30;;;16.60;73.10;;;;;;5073923;28;20082;-72
2023/07/04 00:52:23;;;;;;;10.43;9.63;;;16.60;73.10;;;;;;5070651;28;20024;-72
2023/07/04 00:54:53;;;;;;;10.50;9.80;;;16.60;73.30;;;;;;5072444;28;20059;-73
2023/07/04 00:57:21;;;;;;;10.23;9.52;;;16.60;73.30;;;;;;5079402;28;20032;-72
2023/07/04 00:59:52;;;;;;;10.52;9.68;;;16.50;73.30;;;;;;5071636;28;20040;-72
2023/07/04 01:02:23;;;;;;;10.30;9.63;;;16.40;73.50;;;;;;5068648;28;20040;-72
2023/07/04 01:04:52;;;;;;;10.43;9.73;;;16.40;74.00;;;;;;5071727;28;20029;-72
2023/07/04 01:07:42;;;;;;;10.48;9.52;;;16.30;74.10;;;;;;5085059;28;20048;-72
2023/07/04 01:10:16;;;;;;;10.23;9.43;;;16.30;74.20;;;;;;5076398;28;20021;-72
2023/07/04 01:12:43;;;;;;;10.73;9.93;;;16.20;74.70;;;;;;5075380;28;20055;-72
2023/07/04 01:15:10;;;;;;;11.02;10.15;;;16.20;75.30;;;;;;5073770;28;20163;-72
2023/07/04 01:17:35;;;;;;;9.52;8.93;;;16.20;75.70;;;;;;5091894;28;20506;-73
2023/07/04 01:20:06;;;;;;;10.23;9.52;;;16.20;74.80;;;;;;5072462;28;20040;-72
2023/07/04 01:22:45;;;;;;;10.23;9.52;;;16.20;74.50;;;;;;5076307;28;20055;-72
2023/07/04 01:25:26;;;;;;;9.30;8.70;;;16.20;74.20;;;;;;5074681;28;20078;-72
2023/07/04 01:27:59;;;;;;;10.32;9.63;;;16.30;74.00;;;;;;5070435;28;20383;-72
2023/07/04 01:30:28;;;;;;;9.88;9.27;;;16.30;74.40;;;;;;5078505;28;20037;-72
2023/07/04 01:32:55;;;;;;;9.40;8.70;;;16.30;73.90;;;;;;5073199;28;20100;-72
2023/07/04 01:35:22;;;;;;;9.88;9.27;;;16.30;73.90;;;;;;5073668;28;20557;-72
2023/07/04 01:37:49;;;;;;;9.50;8.90;;;16.40;74.40;;;;;;5074061;28;20530;-72
2023/07/04 01:40:15;;;;;;;9.25;8.70;;;16.30;74.10;;;;;;5071681;28;20035;-72
2023/07/04 01:42:41;;;;;;;9.32;8.73;;;16.30;73.90;;;;;;5079378;28;20492;-72
2023/07/04 01:45:08;;;;;;;10.65;9.77;;;16.40;73.90;;;;;;5059194;28;20036;-72
2023/07/04 01:47:36;;;;;;;17.08;16.27;;;16.40;75.10;;;;;;5078416;28;20478;-72
2023/07/04 01:50:02;;;;;;;16.17;15.38;;;16.20;82.00;;;;;;5079088;28;20064;-72
2023/07/04 01:52:28;;;;;;;28.83;27.48;;;15.80;87.20;;;;;;5073089;28;20047;-72
2023/07/04 01:54:55;;;;;;;36.15;34.65;;;15.40;93.50;;;;;;5091803;28;20039;-72
2023/07/04 01:57:20;;;;;;;38.67;37.10;;;15.00;99.90;;;;;;5080392;28;20036;-72
2023/07/04 01:59:46;;;;;;;48.95;46.97;;;14.90;99.90;;;;;;5077814;28;20032;-72
2023/07/04 02:02:12;;;;;;;40.70;38.97;;;14.90;99.90;;;;;;5080676;28;20490;-72
2023/07/04 02:04:37;;;;;;;50.50;48.40;;;14.70;99.90;;;;;;5076855;28;20040;-72
2023/07/04 02:07:04;;;;;;;43.75;41.92;;;14.60;99.90;;;;;;5059047;28;20025;-72
2023/07/04 02:09:29;;;;;;;50.05;48.10;;;14.60;99.90;;;;;;5078103;28;20046;-72
2023/07/04 02:11:55;;;;;;;40.97;39.22;;;14.60;99.90;;;;;;5077033;28;20115;-72
2023/07/04 02:14:20;;;;;;;43.35;41.55;;;14.60;99.90;;;;;;5076332;28;20032;-72
2023/07/04 02:16:46;;;;;;;38.53;36.78;;;14.60;99.90;;;;;;5079399;28;20025;-73
2023/07/04 02:19:12;;;;;;;32.28;30.85;;;14.40;99.90;;;;;;5080107;28;20028;-72
2023/07/04 02:21:37;;;;;;;29.67;28.42;;;14.40;99.90;;;;;;5079676;28;20036;-73
2023/07/04 02:24:04;;;;;;;29.30;27.90;;;14.50;99.90;;;;;;5078024;28;20045;-72
2023/07/04 02:26:32;;;;;;;35.58;33.63;;;14.50;99.90;;;;;;5076953;28;20054;-73
2023/07/04 02:29:01;;;;;;;32.60;31.08;;;14.40;99.90;;;;;;5076994;28;20072;-72
2023/07/04 02:31:27;;;;;;;34.00;31.30;;;14.30;99.90;;;;;;5078353;28;20035;-72
2023/07/04 02:33:52;;;;;;;24.70;23.05;;;14.20;99.90;;;;;;5079465;28;20028;-72
2023/07/04 02:36:19;;;;;;;22.90;21.38;;;14.20;99.90;;;;;;5078308;28;20059;-72
2023/07/04 02:38:45;;;;;;;22.02;20.77;;;14.20;99.90;;;;;;5075361;28;20122;-72
2023/07/04 02:41:11;;;;;;;21.13;20.02;;;14.30;99.90;;;;;;5081417;28;20537;-72
2023/07/04 02:43:37;;;;;;;24.30;23.20;;;14.30;99.90;;;;;;5076834;28;20766;-72
2023/07/04 02:46:05;;;;;;;19.88;18.67;;;14.20;99.90;;;;;;5078534;28;20025;-72
2023/07/04 02:48:32;;;;;;;20.52;19.52;;;14.20;99.90;;;;;;5079347;28;20025;-72
2023/07/04 02:50:58;;;;;;;19.95;18.80;;;14.20;99.90;;;;;;5074292;28;20020;-72
2023/07/04 02:53:24;;;;;;;22.40;21.30;;;14.20;99.90;;;;;;5080792;28;20482;-72
2023/07/04 02:55:52;;;;;;;24.55;23.17;;;14.20;99.90;;;;;;5075041;28;20074;-72
2023/07/04 02:58:18;;;;;;;19.80;18.70;;;14.20;99.90;;;;;;5076440;28;20039;-72
2023/07/04 03:00:44;;;;;;;19.88;18.88;;;14.30;99.90;;;;;;5091090;28;20032;-72
2023/07/04 03:03:10;;;;;;;19.48;18.23;;;14.30;99.90;;;;;;5075984;28;21070;-72
2023/07/04 03:05:36;;;;;;;18.38;17.23;;;14.30;99.90;;;;;;5078973;28;20079;-72
2023/07/04 03:08:03;;;;;;;19.80;18.33;;;14.20;99.90;;;;;;5081663;28;20024;-72
2023/07/04 03:10:29;;;;;;;20.65;19.40;;;14.30;99.90;;;;;;5078408;28;20056;-72
2023/07/04 03:12:55;;;;;;;18.95;17.92;;;14.30;99.90;;;;;;5079455;28;20039;-72
2023/07/04 03:15:21;;;;;;;19.77;18.50;;;14.40;99.90;;;;;;5054931;28;20032;-72
2023/07/04 03:17:48;;;;;;;20.00;18.75;;;14.30;99.90;;;;;;5072450;28;20027;-73
2023/07/04 03:20:14;;;;;;;20.13;18.95;;;14.40;99.90;;;;;;5076775;28;20028;-72
2023/07/04 03:22:40;;;;;;;21.55;19.98;;;14.40;99.90;;;;;;5076817;28;20047;-73
2023/07/04 03:25:07;;;;;;;19.75;18.48;;;14.40;99.90;;;;;;5076203;28;20040;-72
2023/07/04 03:27:35;;;;;;;20.00;18.80;;;14.50;99.90;;;;;;5075501;28;20024;-73
2023/07/04 03:30:01;;;;;;;18.65;17.58;;;14.40;99.90;;;;;;5072748;28;20075;-72
2023/07/04 03:32:26;;;;;;;18.35;17.25;;;14.40;99.90;;;;;;5073632;28;20521;-72
2023/07/04 03:34:52;;;;;;;18.90;17.58;;;14.40;99.90;;;;;;5074593;28;20037;-72
2023/07/04 03:37:18;;;;;;;19.45;18.27;;;14.50;99.90;;;;;;5073767;28;20032;-72
2023/07/04 03:39:44;;;;;;;19.63;18.30;;;14.40;99.90;;;;;;5073083;28;20092;-72
2023/07/04 03:42:09;;;;;;;19.77;18.45;;;14.50;99.90;;;;;;5071091;28;20048;-72
2023/07/04 03:44:35;;;;;;;21.13;19.83;;;14.40;99.90;;;;;;5089115;28;20036;-73
2023/07/04 03:47:01;;;;;;;19.33;18.23;;;14.40;99.90;;;;;;5088663;28;20086;-72
2023/07/04 03:49:26;;;;;;;21.95;20.75;;;14.40;99.90;;;;;;5074493;28;20021;-72
2023/07/04 03:51:52;;;;;;;21.88;20.25;;;14.40;99.90;;;;;;5075501;28;20020;-72
2023/07/04 03:54:18;;;;;;;19.67;18.58;;;14.30;99.90;;;;;;5085940;28;20078;-72
2023/07/04 03:56:44;;;;;;;20.17;18.60;;;14.40;99.90;;;;;;5074469;28;20039;-72
2023/07/04 03:59:09;;;;;;;19.40;18.25;;;14.30;99.90;;;;;;5075054;28;20505;-72
2023/07/04 04:01:35;;;;;;;19.67;18.58;;;14.40;99.90;;;;;;5086109;28;20536;-73
2023/07/04 04:04:00;;;;;;;21.38;20.17;;;14.40;99.90;;;;;;5076980;28;20040;-72
2023/07/04 04:06:26;;;;;;;20.35;19.05;;;14.50;99.90;;;;;;5072474;28;20037;-73
2023/07/04 04:08:52;;;;;;;21.25;19.77;;;14.40;99.90;;;;;;5069532;28;20071;-73
2023/07/04 04:11:18;;;;;;;21.58;20.40;;;14.40;99.90;;;;;;5074172;28;20040;-72
2023/07/04 04:13:44;;;;;;;20.77;19.33;;;14.30;99.90;;;;;;5088484;28;20189;-72
2023/07/04 04:16:10;;;;;;;20.83;19.63;;;14.30;99.90;;;;;;5075277;28;20039;-72
2023/07/04 04:18:35;;;;;;;20.33;19.02;;;14.30;99.90;;;;;;5076060;28;20473;-72
2023/07/04 04:21:01;;;;;;;21.15;19.90;;;14.30;99.90;;;;;;5074027;28;20422;-72
2023/07/04 04:23:27;;;;;;;35.20;31.77;;;14.40;99.90;;;;;;5052337;28;20056;-73
2023/07/04 04:25:53;;;;;;;23.15;21.65;;;14.60;99.90;;;;;;5086677;28;20114;-73
2023/07/04 04:28:19;;;;;;;21.27;19.80;;;14.70;99.90;;;;;;5073449;28;20536;-72
2023/07/04 04:30:45;;;;;;;20.35;19.30;;;14.80;99.90;;;;;;5077986;28;20089;-71
2023/07/04 04:33:10;;;;;;;21.77;20.35;;;14.80;99.90;;;;;;5074403;28;20037;-73
2023/07/04 04:35:39;;;;;;;21.40;20.08;;;14.80;99.90;;;;;;5073551;28;20081;-73
2023/07/04 04:38:07;;;;;;;22.50;21.00;;;14.80;99.90;;;;;;5074115;28;20063;-73
2023/07/04 04:40:33;;;;;;;21.83;19.92;;;14.80;99.90;;;;;;5071972;28;20036;-75
2023/07/04 04:42:58;;;;;;;21.95;20.42;;;15.00;99.90;;;;;;5073789;28;20577;-78
2023/07/04 04:45:24;;;;;;;20.30;19.13;;;14.90;99.90;;;;;;5071056;28;20174;-75
2023/07/04 04:47:52;;;;;;;21.85;20.10;;;14.90;99.90;;;;;;5085853;28;20044;-75
2023/07/04 04:50:21;;;;;;;22.08;20.63;;;14.80;99.90;;;;;;5088345;28;20430;-71
2023/07/04 04:52:47;;;;;;;22.33;20.70;;;14.90;99.90;;;;;;5073551;28;20024;-75
2023/07/04 04:55:13;;;;;;;20.98;19.33;;;15.00;99.90;;;;;;5075401;28;20158;-78
2023/07/04 04:57:39;;;;;;;24.42;22.80;;;15.20;99.90;;;;;;5072630;28;20056;-79
2023/07/04 05:00:06;;;;;;;22.40;21.10;;;15.10;99.90;;;;;;5050898;28;20137;-77
2023/07/04 05:02:31;;;;;;;22.77;21.27;;;15.10;99.90;;;;;;5072522;28;20040;-77
2023/07/04 05:05:00;;;;;;;23.90;22.40;;;15.00;99.90;;;;;;5072073;28;20060;-77
2023/07/04 05:07:31;;;;;;;22.35;21.05;;;15.00;99.90;;;;;;5074239;28;20028;-79
2023/07/04 05:10:00;;;;;;;23.42;22.02;;;14.90;99.90;;;;;;5054392;28;20032;-77
2023/07/04 05:12:26;;;;;;;23.88;22.38;;;15.00;99.90;;;;;;5055263;28;20040;-77
2023/07/04 05:14:52;;;;;;;25.83;24.13;;;15.00;99.90;;;;;;5071857;28;20028;-77
2023/07/04 05:17:18;;;;;;;23.08;21.63;;;15.00;99.90;;;;;;5073763;28;20443;-78
2023/07/04 05:19:47;;;;;;;23.27;21.75;;;14.90;99.90;;;;;;5078466;28;20629;-77
2023/07/04 05:22:12;;;;;;;24.67;22.98;;;14.90;99.90;;;;;;5074502;28;20032;-76
2023/07/04 05:24:38;;;;;;;22.75;21.60;;;15.00;99.90;;;;;;5075515;28;20067;-78
2023/07/04 05:27:04;;;;;;;22.27;20.85;;;15.10;99.90;;;;;;5075446;28;20069;-77
2023/07/04 05:29:29;;;;;;;26.15;24.40;;;15.40;99.90;;;;;;5079516;28;20395;-79
2023/07/04 05:31:55;;;;;;;25.33;23.65;;;15.50;99.90;;;;;;5089840;28;20194;-77
2023/07/04 05:34:21;;;;;;;27.27;25.83;;;15.30;99.90;;;;;;5076021;28;20028;-76
2023/07/04 05:36:46;;;;;;;27.33;25.38;;;15.40;99.90;;;;;;5059789;28;20397;-76
2023/07/04 05:39:12;;;;;;;27.27;25.75;;;15.40;99.90;;;;;;5061742;28;20036;-76
2023/07/04 05:41:39;;;;;;;29.15;27.50;;;15.50;99.90;;;;;;5080294;28;20024;-76
2023/07/04 05:44:07;;;;;;;27.98;26.33;;;15.50;99.90;;;;;;5076471;28;20031;-76
2023/07/04 05:46:35;;;;;;;29.20;27.40;;;15.60;99.90;;;;;;5076033;28;20115;-77
2023/07/04 05:49:01;;;;;;;33.58;31.70;;;15.60;99.90;;;;;;5080025;28;20115;-76
2023/07/04 05:51:27;;;;;;;26.30;24.63;;;15.70;99.90;;;;;;5090830;28;20033;-76
2023/07/04 05:53:53;;;;;;;27.98;26.25;;;16.00;99.90;;;;;;5080332;28;20016;-76
2023/07/04 05:56:26;;;;;;;33.35;30.98;;;16.20;99.90;;;;;;5059083;28;20044;-76
2023/07/04 05:58:57;;;;;;;27.63;26.13;;;16.40;99.90;;;;;;5074819;28;20032;-76
2023/07/04 06:01:23;;;;;;;37.17;35.45;;;16.40;99.90;;;;;;5078743;28;20048;-76
2023/07/04 06:03:49;;;;;;;34.80;32.78;;;16.40;99.90;;;;;;5076060;28;20028;-77
2023/07/04 06:06:27;;;;;;;38.53;36.35;;;16.50;99.90;;;;;;5076888;28;20032;-76
2023/07/04 06:08:55;;;;;;;32.88;31.40;;;16.90;99.90;;;;;;5075938;28;20039;-75
2023/07/04 06:11:22;;;;;;;33.42;31.80;;;17.40;99.80;;;;;;5072872;28;20036;-75
2023/07/04 06:13:48;;;;;;;35.90;34.13;;;17.50;98.00;;;;;;5079471;28;20021;-75
2023/07/04 06:16:14;;;;;;;48.03;46.08;;;17.70;97.10;;;;;;5074656;28;20043;-75
2023/07/04 06:18:39;;;;;;;47.97;45.88;;;17.60;94.80;;;;;;5076275;28;20043;-75
2023/07/04 06:21:09;;;;;;;47.65;45.28;;;17.70;95.40;;;;;;5073025;28;20599;-75
2023/07/04 06:23:35;;;;;;;46.63;44.77;;;17.80;93.50;;;;;;5076612;28;20117;-75
2023/07/04 06:26:02;;;;;;;32.63;30.92;;;18.10;93.40;;;;;;5082627;28;20663;-75
2023/07/04 06:28:27;;;;;;;48.38;46.33;;;17.90;92.10;;;;;;5074892;28;20025;-75
2023/07/04 06:30:53;;;;;;;39.47;37.78;;;18.10;93.70;;;;;;5076312;28;20382;-75
2023/07/04 06:33:19;;;;;;;39.08;37.50;;;18.20;92.60;;;;;;5079973;28;20036;-75
2023/07/04 06:35:44;;;;;;;35.17;33.67;;;18.30;93.10;;;;;;5071414;28;20112;-75
2023/07/04 06:38:10;;;;;;;36.97;35.15;;;18.30;91.00;;;;;;5074231;28;20039;-75
2023/07/04 06:40:36;;;;;;;33.45;32.05;;;18.40;90.90;;;;;;5074131;28;20437;-75
2023/07/04 06:43:03;;;;;;;34.70;33.20;;;18.40;91.40;;;;;;5056284;28;20571;-75
2023/07/04 06:45:31;;;;;;;30.75;29.48;;;18.60;90.60;;;;;;5077762;28;20032;-75
2023/07/04 06:47:58;;;;;;;40.13;38.40;;;18.70;90.10;;;;;;5055418;28;20072;-76
2023/07/04 06:50:24;;;;;;;34.60;33.10;;;18.50;87.80;;;;;;5059755;28;20032;-76
2023/07/04 06:52:50;;;;;;;37.50;35.83;;;18.60;88.40;;;;;;5076171;28;20103;-76
2023/07/04 06:55:15;;;;;;;37.55;35.88;;;18.70;89.50;;;;;;5075743;28;20122;-76
2023/07/04 06:57:42;;;;;;;27.80;26.60;;;18.60;87.00;;;;;;5075523;28;20037;-75
2023/07/04 07:00:08;;;;;;;34.95;33.38;;;18.80;85.60;;;;;;5075806;28;20029;-74
2023/07/04 07:02:34;;;;;;;35.58;34.08;;;19.00;85.70;;;;;;5073066;28;20429;-76
2023/07/04 07:04:59;;;;;;;27.80;26.48;;;19.20;87.40;;;;;;5091765;28;20051;-72
2023/07/04 07:07:25;;;;;;;26.90;25.63;;;19.00;87.10;;;;;;5076091;28;20042;-73
2023/07/04 07:09:51;;;;;;;21.52;20.35;;;19.30;84.90;;;;;;5089206;28;20034;-73
2023/07/04 07:12:17;;;;;;;40.13;38.38;;;19.20;82.40;;;;;;5077761;28;20036;-73
2023/07/04 07:14:42;;;;;;;45.25;43.28;;;19.00;82.40;;;;;;5073352;28;20113;-74
2023/07/04 07:17:08;;;;;;;34.65;33.22;;;19.20;81.90;;;;;;5076419;28;20031;-73
2023/07/04 07:19:34;;;;;;;32.97;31.48;;;19.30;82.30;;;;;;5074998;28;20028;-73
2023/07/04 07:22:01;;;;;;;41.08;39.42;;;19.50;82.60;;;;;;5072419;28;20040;-74
2023/07/04 07:24:30;;;;;;;29.23;27.83;;;19.80;81.10;;;;;;5076555;28;20448;-74
2023/07/04 07:26:57;;;;;;;38.88;37.13;;;20.00;82.60;;;;;;5075152;28;20071;-74
2023/07/04 07:29:23;;;;;;;36.53;34.90;;;19.90;79.50;;;;;;5053906;28;20024;-74
2023/07/04 07:31:50;;;;;;;44.00;42.25;;;19.80;79.00;;;;;;5075479;28;20161;-74
2023/07/04 07:34:17;;;;;;;47.90;45.78;;;19.80;81.80;;;;;;5073327;28;20028;-74
2023/07/04 07:36:44;;;;;;;26.13;24.92;;;19.60;79.80;;;;;;5075242;28;20057;-74
2023/07/04 07:39:12;;;;;;;21.15;20.05;;;19.40;75.40;;;;;;5072210;28;20117;-74
2023/07/04 07:41:41;;;;;;;20.58;19.50;;;19.30;77.30;;;;;;5075957;28;20537;-74
2023/07/04 07:44:07;;;;;;;14.13;12.95;;;19.20;76.30;;;;;;5075480;28;20028;-73
2023/07/04 07:46:34;;;;;;;14.38;13.48;;;19.20;75.40;;;;;;5073792;28;20044;-74
2023/07/04 07:48:59;;;;;;;14.48;13.55;;;19.40;75.10;;;;;;5075582;28;20099;-74
2023/07/04 07:51:26;;;;;;;12.63;11.85;;;19.50;75.20;;;;;;5078463;28;20500;-74
2023/07/04 07:53:53;;;;;;;12.68;11.82;;;19.40;72.70;;;;;;5071289;28;20048;-74
2023/07/04 07:56:21;;;;;;;12.93;11.98;;;19.30;71.50;;;;;;5078838;28;20035;-73
2023/07/04 07:58:47;;;;;;;20.40;19.40;;;19.40;71.90;;;;;;5074949;28;20093;-74
2023/07/04 08:01:22;;;;;;;14.43;13.48;;;19.20;72.00;;;;;;5073010;28;20032;-74
2023/07/04 08:03:48;;;;;;;13.05;12.20;;;19.60;73.10;;;;;;5080730;28;20103;-74
2023/07/04 08:06:30;;;;;;;15.20;14.20;;;19.90;71.90;;;;;;5074224;28;20561;-74
2023/07/04 08:08:58;;;;;;;13.57;12.68;;;19.90;73.40;;;;;;5073369;28;20075;-74
2023/07/04 08:11:25;;;;;;;13.32;12.35;;;19.80;72.10;;;;;;5070111;28;20025;-75
2023/07/04 08:13:51;;;;;;;16.55;15.55;;;19.80;69.60;;;;;;5073915;28;20040;-74
2023/07/04 08:16:20;;;;;;;16.00;15.00;;;19.70;73.20;;;;;;5072959;28;20027;-74
2023/07/04 08:18:46;;;;;;;15.85;14.57;;;20.20;69.90;;;;;;5072809;28;20040;-74
2023/07/04 08:21:12;;;;;;;13.93;12.95;;;20.80;70.20;;;;;;5077771;28;20077;-73
2023/07/04 08:23:37;;;;;;;14.05;13.02;;;20.90;66.00;;;;;;5074199;28;20044;-74
2023/07/04 08:26:03;;;;;;;16.67;15.63;;;20.60;66.20;;;;;;5074878;28;20033;-74
2023/07/04 08:28:29;;;;;;;18.52;17.33;;;20.70;68.20;;;;;;5075244;28;20562;-73
2023/07/04 08:31:05;;;;;;;20.63;19.55;;;20.60;62.70;;;;;;5088201;28;20498;-75
2023/07/04 08:33:31;;;;;;;14.88;13.68;;;20.90;65.10;;;;;;5074993;28;20466;-74
2023/07/04 08:35:58;;;;;;;19.58;18.38;;;21.10;60.00;;;;;;5076221;28;20031;-74
2023/07/04 08:38:23;;;;;;;25.48;23.85;;;21.30;59.70;;;;;;5072426;28;20123;-74
2023/07/04 08:40:50;;;;;;;14.68;13.68;;;21.40;58.70;;;;;;5074860;28;20108;-74
2023/07/04 08:43:21;;;;;;;14.88;13.77;;;21.20;55.40;;;;;;5074837;28;20547;-74
2023/07/04 08:45:47;;;;;;;23.52;22.02;;;21.30;58.20;;;;;;5073019;28;20399;-74
2023/07/04 08:48:17;;;;;;;17.13;16.10;;;21.60;59.20;;;;;;5071324;28;20050;-74
2023/07/04 08:50:46;;;;;;;17.33;15.90;;;21.70;55.90;;;;;;5074418;28;20033;-74
2023/07/04 08:53:18;;;;;;;17.95;14.65;;;22.00;57.00;;;;;;5074414;28;20032;-74
2023/07/04 08:55:52;;;;;;;16.65;15.55;;;22.40;55.50;;;;;;5074250;28;20063;-74
2023/07/04 08:58:21;;;;;;;15.27;14.05;;;22.50;53.60;;;;;;5071347;28;20082;-74
2023/07/04 09:00:47;;;;;;;16.08;14.73;;;23.10;53.70;;;;;;5072053;28;20032;-74
2023/07/04 09:03:27;;;;;;;17.17;15.82;;;22.60;54.20;;;;;;5090793;28;20363;-74
2023/07/04 09:06:05;;;;;;;15.57;14.32;;;22.70;55.40;;;;;;5075365;28;20367;-74
2023/07/04 09:08:56;;;;;;;18.90;17.63;;;23.20;53.20;;;;;;5070373;28;20039;-74
2023/07/04 09:11:23;;;;;;;13.63;12.70;;;23.80;53.00;;;;;;5055815;28;20034;-74
2023/07/04 09:14:53;;;;;;;17.80;16.73;;;23.80;48.80;;;;;;5076219;28;20558;-74
2023/07/04 09:18:03;;;;;;;16.73;15.55;;;23.90;49.70;;;;;;5006888;28;20029;-75
2023/07/04 09:20:31;;;;;;;15.90;14.90;;;23.90;52.10;;;;;;5047984;28;20550;-73
2023/07/04 09:22:57;;;;;;;14.88;13.88;;;24.30;52.70;;;;;;5072539;28;20047;-74
2023/07/04 09:25:23;;;;;;;19.83;18.55;;;24.30;50.70;;;;;;5073403;28;20028;-74
2023/07/04 09:27:49;;;;;;;13.93;12.93;;;24.20;51.60;;;;;;5077261;28;20557;-74
2023/07/04 09:30:14;;;;;;;17.75;16.17;;;24.20;50.70;;;;;;5071422;28;20123;-74
2023/07/04 09:32:42;;;;;;;23.77;22.42;;;24.20;46.70;;;;;;5075602;28;20835;-76
2023/07/04 09:35:10;;;;;;;14.13;13.02;;;24.00;49.40;;;;;;5072777;28;20032;-75
2023/07/04 09:37:57;;;;;;;14.10;13.10;;;23.80;50.00;;;;;;5053302;28;20036;-74
2023/07/04 09:40:41;;;;;;;18.08;17.02;;;23.80;49.50;;;;;;5077151;28;20107;-74
2023/07/04 09:43:09;;;;;;;50.58;48.42;;;24.00;48.70;;;;;;5070308;28;20027;-78
2023/07/04 09:45:35;;;;;;;22.02;20.77;;;24.00;50.60;;;;;;5069742;28;20048;-77
2023/07/04 09:48:01;;;;;;;31.20;29.25;;;24.40;52.10;;;;;;5074057;28;20487;-77
2023/07/04 09:50:32;;;;;;;57.80;55.33;;;23.80;51.20;;;;;;5072760;28;20021;-77
2023/07/04 09:53:04;;;;;;;37.05;35.35;;;23.10;50.80;;;;;;5056300;28;20033;-77
2023/07/04 09:55:31;;;;;;;41.15;39.03;;;22.80;54.30;;;;;;5068658;28;20043;-77
2023/07/04 09:58:17;;;;;;;59.13;56.75;;;23.10;53.60;;;;;;5070608;28;20020;-77
2023/07/04 10:00:59;;;;;;;61.63;59.00;;;22.60;52.80;;;;;;5089415;28;20086;-77
2023/07/04 10:03:25;;;;;;;78.72;75.75;;;22.90;52.50;;;;;;5085854;28;20732;-77
2023/07/04 10:05:51;;;;;;;73.28;70.35;;;23.20;49.20;;;;;;5076827;28;20032;-77
2023/07/04 10:08:17;;;;;;;48.08;45.33;;;23.50;50.30;;;;;;5076953;28;20055;-77
2023/07/04 10:10:52;;;;;;;76.05;72.72;;;24.20;49.40;;;;;;5075501;28;20039;-77
2023/07/04 10:13:20;;;;;;;101.05;97.15;;;24.40;48.00;;;;;;5079873;28;20051;-78
2023/07/04 10:15:47;;;;;;;90.38;86.97;;;24.10;45.70;;;;;;5072181;28;20036;-77
2023/07/04 10:18:30;;;;;;;66.82;64.03;;;24.30;46.70;;;;;;5060914;28;20037;-77
2023/07/04 10:20:58;;;;;;;119.80;115.28;;;25.30;48.90;;;;;;5076402;28;20029;-77
2023/07/04 10:23:29;;;;;;;206.00;198.68;;;25.50;44.50;;;;;;5070691;28;20040;-77
2023/07/04 10:25:57;;;;;;;133.77;128.57;;;25.90;44.30;;;;;;5054901;28;20040;-77
2023/07/04 10:28:27;;;;;;;113.57;109.28;;;26.10;42.80;;;;;;5074126;28;20020;-78
2023/07/04 10:30:59;;;;;;;226.73;218.10;;;26.10;43.60;;;;;;5079193;28;20089;-78
2023/07/04 10:33:54;;;;;;;450.70;432.10;;;26.40;40.70;;;;;;5073035;28;20028;-78
2023/07/04 10:36:31;;;;;;;385.60;369.90;;;25.90;38.20;;;;;;5047228;28;20048;-77
2023/07/04 10:39:01;;;;;;;454.45;435.27;;;25.50;40.50;;;;;;5074363;28;20082;-77
2023/07/04 10:41:48;;;;;;;264.25;254.30;;;25.40;38.90;;;;;;5072222;28;20078;-77
2023/07/04 10:44:21;;;;;;;277.77;267.40;;;25.60;41.20;;;;;;5082255;28;20111;-77
2023/07/04 10:46:53;;;;;;;427.00;409.42;;;25.60;41.60;;;;;;5056554;28;20028;-77
2023/07/04 10:49:22;;;;;;;328.52;316.30;;;25.20;39.50;;;;;;5079549;28;20027;-77
2023/07/04 10:51:53;;;;;;;523.90;501.02;;;25.00;41.30;;;;;;5076483;28;20063;-77
2023/07/04 10:54:19;;;;;;;;;;;25.00;39.30;;;;;;5075442;28;20059;-77
2023/07/04 10:56:52;;;;;;;529.80;502.77;;;24.80;39.40;;;;;;5075158;28;19912;-77
2023/07/04 10:59:28;;;;;;;412.23;395.80;;;24.60;39.90;;;;;;5055596;28;20043;-78
2023/07/04 11:02:04;;;;;;;581.50;555.10;;;25.40;42.60;;;;;;5072527;28;21279;-78
2023/07/04 11:04:36;;;;;;;624.55;594.40;;;26.50;37.70;;;;;;5072633;28;20047;-79
2023/07/04 11:07:12;;;;;;;583.92;556.00;;;26.90;39.50;;;;;;5072365;28;20024;-78
2023/07/04 11:09:41;;;;;;;1999.90;999.90;;;26.30;36.50;;;;;;5068783;28;20040;-78
2023/07/04 11:12:19;;;;;;;1999.90;999.90;;;25.50;36.20;;;;;;5087541;28;20032;-78
2023/07/04 11:14:47;;;;;;;422.88;402.38;;;25.70;38.80;;;;;;5086235;28;20127;-78
2023/07/04 11:17:18;;;;;;;1560.97;807.45;;;26.00;41.20;;;;;;5074235;28;20048;-78
2023/07/04 11:20:21;;;;;;;1999.90;999.90;;;26.70;38.70;;;;;;5072156;28;20033;-77
2023/07/04 11:23:00;;;;;;;1999.90;999.90;;;27.50;37.10;;;;;;5022980;28;20115;-78
2023/07/04 11:25:26;;;;;;;1999.90;999.90;;;27.20;37.50;;;;;;5072182;28;20071;-78
2023/07/04 11:28:16;;;;;;;1999.90;999.90;;;27.10;39.10;;;;;;5066703;28;20099;-78
2023/07/04 11:30:45;;;;;;;1999.90;999.90;;;27.00;35.70;;;;;;5050304;28;20170;-78
2023/07/04 11:33:30;;;;;;;1580.80;826.10;;;27.90;36.00;;;;;;5073040;28;20541;-78
2023/07/04 11:35:56;;;;;;;1999.90;999.90;;;27.10;37.50;;;;;;5075582;28;20123;-78
2023/07/04 11:38:22;;;;;;;1999.90;999.90;;;27.20;34.20;;;;;;5072735;28;20033;-78
2023/07/04 11:40:55;;;;;;;1999.90;999.90;;;27.90;35.00;;;;;;5085017;28;20040;-78
2023/07/04 11:43:32;;;;;;;1999.90;999.90;;;28.10;32.20;;;;;;5053040;28;20127;-78
2023/07/04 11:45:59;;;;;;;1999.90;999.90;;;27.60;36.60;;;;;;5070697;28;20040;-78
2023/07/04 11:48:29;;;;;;;1999.90;999.90;;;28.20;33.10;;;;;;5085178;28;20032;-78
2023/07/04 11:51:10;;;;;;;1999.90;999.90;;;29.30;35.10;;;;;;5056543;28;20028;-78
2023/07/04 11:53:45;;;;;;;1999.90;999.90;;;29.20;34.60;;;;;;5048799;28;20060;-78
2023/07/04 11:56:14;;;;;;;1999.90;999.90;;;28.80;34.30;;;;;;5076922;28;20562;-78
2023/07/04 11:58:40;;;;;;;1999.90;999.90;;;28.70;29.80;;;;;;5056449;28;20025;-78
2023/07/04 12:01:07;;;;;;;1999.90;999.90;;;29.90;34.30;;;;;;5071724;28;20089;-78
2023/07/04 12:04:04;;;;;;;1999.90;999.90;;;30.90;30.60;;;;;;5074761;28;20486;-78
2023/07/04 12:07:00;;;;;;;1999.90;999.90;;;30.30;27.50;;;;;;5072469;28;20127;-78
2023/07/04 12:09:52;;;;;;;1999.90;999.90;;;29.60;29.50;;;;;;5075461;28;20034;-78
2023/07/04 12:12:22;;;;;;;1999.90;999.90;;;30.40;28.60;;;;;;5060428;28;20119;-78
2023/07/04 12:14:52;;;;;;;1999.90;999.90;;;30.00;31.10;;;;;;5074656;28;20116;-78
2023/07/04 12:17:18;;;;;;;1999.90;999.90;;;30.40;31.20;;;;;;5055577;28;20043;-78
2023/07/04 12:19:45;;;;;;;1999.90;999.90;;;30.70;27.40;;;;;;5050778;28;20028;-78
2023/07/04 12:22:15;;;;;;;1999.90;999.90;;;29.30;29.10;;;;;;5072145;28;20037;-77
2023/07/04 12:24:41;;;;;;;1999.90;999.90;;;29.00;30.90;;;;;;5070633;28;20223;-78
2023/07/04 12:27:07;;;;;;;1999.90;999.90;;;29.80;28.70;;;;;;5090489;28;20509;-78
2023/07/04 12:29:45;;;;;;;1999.90;999.90;;;31.50;33.00;;;;;;5071738;28;20036;-78
2023/07/04 12:32:18;;;;;;;1999.90;999.90;;;30.80;31.30;;;;;;5071038;28;20554;-79
2023/07/04 12:34:44;;;;;;;1999.90;999.90;;;31.30;30.10;;;;;;5073447;28;20275;-78